Time;durP1;ratioP1;P1;durP2;ratioP2;P2;SDS_P1;SDS_P2;PMS_P1;PMS_P2;Temp;Humidity;BMP_temperature;BMP_pressure;BME280_temperature;BME280_humidity;BME280_pressure;Samples;Min_cycle;Max_cycle;Signal;HPM_P1;HPM_P2
2022/01/26 00:00:29;;;;;;;127.20;49.22;;;3.10;99.90;;;;;;5003952;28;20026;-79
2022/01/26 00:05:51;;;;;;;124.35;48.38;;;3.00;99.90;;;;;;5009423;28;20045;-80
2022/01/26 00:08:22;;;;;;;131.10;48.03;;;3.00;99.90;;;;;;5006595;28;20053;-79
2022/01/26 00:10:47;;;;;;;130.77;47.50;;;2.90;99.90;;;;;;5006634;28;20022;-78
2022/01/26 00:13:13;;;;;;;126.88;46.88;;;2.90;99.90;;;;;;5007225;28;20193;-79
2022/01/26 00:15:38;;;;;;;125.55;46.80;;;2.90;99.90;;;;;;5004722;28;20087;-79
2022/01/26 00:18:04;;;;;;;113.78;45.13;;;2.90;99.90;;;;;;5010251;28;20057;-80
2022/01/26 00:20:39;;;;;;;127.97;49.28;;;2.90;99.90;;;;;;5008667;28;20022;-80
2022/01/26 00:23:36;;;;;;;131.80;47.78;;;3.00;99.90;;;;;;5005498;28;20457;-80
2022/01/26 00:29:08;;;;;;;120.53;45.60;;;2.90;99.90;;;;;;5002477;28;20065;-79
2022/01/26 00:39:52;;;;;;;116.32;41.97;;;2.80;99.90;;;;;;4999203;28;20073;-78
2022/01/26 00:42:18;;;;;;;126.95;45.88;;;2.80;99.90;;;;;;5009543;28;20026;-79
2022/01/26 00:44:47;;;;;;;130.68;48.17;;;2.90;99.90;;;;;;5010981;28;20049;-80
2022/01/26 00:47:14;;;;;;;126.85;48.88;;;2.90;99.90;;;;;;5008900;28;20038;-79
2022/01/26 00:49:40;;;;;;;129.05;49.85;;;2.90;99.90;;;;;;5009576;28;20036;-80
2022/01/26 00:52:11;;;;;;;128.75;49.08;;;2.90;99.90;;;;;;5011668;28;20052;-80
2022/01/26 00:54:37;;;;;;;135.60;50.95;;;2.90;99.90;;;;;;5010565;28;20038;-79
2022/01/26 00:57:03;;;;;;;128.38;49.22;;;2.90;99.90;;;;;;5010739;28;20519;-80
2022/01/26 00:59:29;;;;;;;122.32;45.15;;;2.90;99.90;;;;;;5009753;28;20024;-80
2022/01/26 01:01:55;;;;;;;133.55;45.78;;;2.90;99.90;;;;;;5010896;28;20497;-80
2022/01/26 01:04:21;;;;;;;127.03;46.65;;;2.90;99.90;;;;;;5011492;28;20129;-79
2022/01/26 01:06:53;;;;;;;122.30;45.55;;;2.80;99.90;;;;;;5009969;28;20541;-79
2022/01/26 01:09:21;;;;;;;131.10;46.83;;;2.90;99.90;;;;;;5011819;28;20030;-80
2022/01/26 01:11:46;;;;;;;119.30;43.60;;;2.90;99.90;;;;;;5010276;28;20038;-79
2022/01/26 01:14:12;;;;;;;128.13;45.53;;;2.90;99.90;;;;;;5012341;28;20022;-79
2022/01/26 01:16:37;;;;;;;124.35;43.42;;;2.90;99.90;;;;;;5009283;28;20042;-79
2022/01/26 01:19:15;;;;;;;130.77;45.83;;;2.90;99.90;;;;;;5011784;28;20541;-80
2022/01/26 01:22:20;;;;;;;125.85;44.47;;;2.90;99.90;;;;;;5005427;28;20034;-80
2022/01/26 01:25:21;;;;;;;119.97;43.33;;;2.90;99.90;;;;;;5005431;28;20072;-80
2022/01/26 01:30:34;;;;;;;131.88;46.92;;;2.90;99.90;;;;;;4980424;28;20084;-79
2022/01/26 01:33:06;;;;;;;122.55;45.40;;;2.90;99.90;;;;;;5011156;28;20077;-80
2022/01/26 01:35:36;;;;;;;127.97;45.17;;;2.90;99.90;;;;;;5008742;28;20026;-80
2022/01/26 01:38:09;;;;;;;125.75;44.65;;;3.00;99.90;;;;;;5010027;28;20129;-80
2022/01/26 01:40:36;;;;;;;126.50;45.10;;;2.90;99.90;;;;;;5009046;28;20065;-80
2022/01/26 01:43:03;;;;;;;126.53;45.92;;;2.90;99.90;;;;;;5003207;28;20099;-79
2022/01/26 01:45:37;;;;;;;129.60;47.53;;;2.90;99.90;;;;;;5009304;28;20026;-79
2022/01/26 01:48:04;;;;;;;125.90;45.22;;;2.90;99.90;;;;;;5011534;28;20037;-79
2022/01/26 01:50:30;;;;;;;120.40;43.17;;;2.90;99.90;;;;;;5010146;28;20036;-79
2022/01/26 01:53:00;;;;;;;127.10;45.78;;;2.90;99.90;;;;;;5010142;28;20429;-80
2022/01/26 01:55:28;;;;;;;125.90;47.58;;;2.90;99.90;;;;;;5009950;28;20026;-79
2022/01/26 01:57:55;;;;;;;130.68;46.10;;;3.00;99.90;;;;;;5010130;28;20445;-79
2022/01/26 02:00:21;;;;;;;119.88;44.05;;;2.90;99.90;;;;;;5009881;28;20041;-79
2022/01/26 02:02:46;;;;;;;127.60;45.92;;;2.90;99.90;;;;;;5006067;28;20153;-79
2022/01/26 02:05:12;;;;;;;123.43;45.00;;;3.00;99.90;;;;;;5003607;28;20045;-79
2022/01/26 02:07:38;;;;;;;129.27;47.00;;;3.00;99.90;;;;;;5010739;28;20474;-79
2022/01/26 02:10:04;;;;;;;123.47;46.60;;;3.00;99.90;;;;;;5011699;28;20546;-79
2022/01/26 02:12:32;;;;;;;110.88;41.50;;;3.00;99.90;;;;;;5010088;28;20108;-79
2022/01/26 02:15:07;;;;;;;114.63;43.35;;;3.10;99.90;;;;;;5007562;28;20033;-79
2022/01/26 02:55:57;;;;;;;132.10;46.88;;;3.20;99.90;;;;;;5011613;28;20084;-79
2022/01/26 03:01:29;;;;;;;125.28;47.63;;;3.10;99.90;;;;;;5007300;28;20559;-79
2022/01/26 03:04:05;;;;;;;118.85;43.22;;;3.10;99.90;;;;;;5006287;28;20137;-79
2022/01/26 03:06:52;;;;;;;119.57;45.40;;;3.10;99.90;;;;;;5014707;28;20030;-79
2022/01/26 03:09:24;;;;;;;125.60;46.35;;;3.20;99.90;;;;;;5013872;28;20032;-79
2022/01/26 03:11:50;;;;;;;120.67;45.53;;;3.20;99.90;;;;;;5013236;28;20034;-79
2022/01/26 03:16:50;;;;;;;121.90;45.80;;;3.20;99.90;;;;;;5013995;28;20042;-79
2022/01/26 03:29:55;;;;;;;123.60;44.95;;;3.20;99.90;;;;;;5012106;28;20084;-79
2022/01/26 03:35:00;;;;;;;124.03;46.88;;;3.20;99.90;;;;;;5009198;28;20058;-79
2022/01/26 03:37:36;;;;;;;128.55;49.22;;;3.20;99.90;;;;;;5012317;28;20076;-79
2022/01/26 03:40:10;;;;;;;125.78;47.63;;;3.20;99.90;;;;;;5014710;28;20112;-80
2022/01/26 03:42:36;;;;;;;127.75;46.97;;;3.20;99.90;;;;;;5012264;28;20065;-78
2022/01/26 03:45:01;;;;;;;125.60;47.17;;;3.20;99.90;;;;;;5006464;28;20022;-79
2022/01/26 03:47:27;;;;;;;127.85;46.53;;;3.30;99.90;;;;;;5005675;28;20047;-79
2022/01/26 03:49:52;;;;;;;126.50;48.30;;;3.30;99.90;;;;;;5005589;28;20018;-79
2022/01/26 03:52:18;;;;;;;124.85;47.60;;;3.30;99.90;;;;;;5012371;28;20397;-79
2022/01/26 03:54:43;;;;;;;122.28;44.63;;;3.30;99.90;;;;;;5011014;28;20097;-79
2022/01/26 03:57:09;;;;;;;130.40;48.10;;;3.30;99.90;;;;;;5013275;28;20049;-79
2022/01/26 03:59:34;;;;;;;127.57;48.13;;;3.30;99.90;;;;;;5012458;28;20417;-79
2022/01/26 04:02:00;;;;;;;121.20;45.92;;;3.20;99.90;;;;;;5010653;28;20029;-79
2022/01/26 04:04:26;;;;;;;128.32;46.20;;;3.20;99.90;;;;;;5009059;28;20065;-79
2022/01/26 04:06:52;;;;;;;123.40;46.10;;;3.20;99.90;;;;;;5012972;28;20030;-79
2022/01/26 04:09:19;;;;;;;126.65;46.10;;;3.10;99.90;;;;;;5013310;28;20385;-79
2022/01/26 04:11:48;;;;;;;132.88;48.45;;;3.10;99.90;;;;;;5012482;28;20021;-79
2022/01/26 04:14:19;;;;;;;135.25;49.20;;;3.10;99.90;;;;;;5009887;28;20026;-79
2022/01/26 04:16:45;;;;;;;127.45;46.97;;;3.10;99.90;;;;;;5010623;28;20056;-79
2022/01/26 04:19:10;;;;;;;137.68;48.65;;;3.10;99.90;;;;;;5011702;28;20101;-79
2022/01/26 04:21:54;;;;;;;135.52;48.75;;;3.20;99.90;;;;;;5012209;28;20036;-79
2022/01/26 04:24:26;;;;;;;131.50;49.25;;;3.20;99.90;;;;;;5010126;28;20033;-79
2022/01/26 04:27:00;;;;;;;119.40;45.33;;;3.20;99.90;;;;;;5011176;28;20030;-79
2022/01/26 04:29:31;;;;;;;130.98;46.20;;;3.20;99.90;;;;;;5011220;28;20029;-79
2022/01/26 04:31:58;;;;;;;129.90;48.08;;;3.20;99.90;;;;;;5011243;28;20045;-79
2022/01/26 04:34:24;;;;;;;129.45;47.85;;;3.30;99.90;;;;;;5011477;28;20514;-79
2022/01/26 04:36:56;;;;;;;128.82;46.88;;;3.30;99.90;;;;;;4996015;28;20041;-79
2022/01/26 04:39:30;;;;;;;131.38;47.95;;;3.30;99.90;;;;;;5009837;28;20053;-79
2022/01/26 04:42:01;;;;;;;128.77;47.55;;;3.30;99.90;;;;;;5009815;28;20034;-79
2022/01/26 04:44:32;;;;;;;130.88;46.67;;;3.40;99.90;;;;;;5008538;28;20025;-78
2022/01/26 04:46:58;;;;;;;128.18;46.00;;;3.40;99.90;;;;;;5001008;28;20522;-79
2022/01/26 04:49:24;;;;;;;129.52;49.13;;;3.40;99.90;;;;;;5010467;28;20026;-79
2022/01/26 04:51:49;;;;;;;134.45;48.08;;;3.30;99.90;;;;;;5011098;28;20034;-79
2022/01/26 04:54:15;;;;;;;128.82;48.20;;;3.30;99.90;;;;;;5009878;28;20112;-79
2022/01/26 04:56:40;;;;;;;127.07;45.78;;;3.30;99.90;;;;;;5011674;28;20042;-79
2022/01/26 04:59:06;;;;;;;123.70;46.22;;;3.30;99.90;;;;;;5012627;28;20030;-79
2022/01/26 05:01:32;;;;;;;131.13;47.83;;;3.30;99.90;;;;;;5009409;28;20390;-78
2022/01/26 05:03:58;;;;;;;124.45;46.47;;;3.20;99.90;;;;;;5012371;28;20030;-79
2022/01/26 05:06:23;;;;;;;120.65;45.75;;;3.20;99.90;;;;;;5002224;28;20030;-79
2022/01/26 05:08:49;;;;;;;110.95;41.42;;;3.20;99.90;;;;;;5007920;28;20091;-78
2022/01/26 05:11:21;;;;;;;124.53;45.80;;;3.20;99.90;;;;;;5004457;28;20110;-78
2022/01/26 05:13:47;;;;;;;132.88;46.83;;;3.20;99.90;;;;;;5008110;28;20394;-79
2022/01/26 05:16:12;;;;;;;126.85;47.22;;;3.20;99.90;;;;;;5005793;28;20052;-79
2022/01/26 05:18:38;;;;;;;132.75;48.13;;;3.20;99.90;;;;;;5012689;28;20033;-79
2022/01/26 05:21:04;;;;;;;116.38;42.55;;;3.20;99.90;;;;;;5010271;28;20025;-79
2022/01/26 05:23:29;;;;;;;115.82;44.30;;;3.20;99.90;;;;;;5005966;28;20026;-79
2022/01/26 05:25:55;;;;;;;120.85;44.92;;;3.20;99.90;;;;;;5009143;28;20021;-80
2022/01/26 05:28:20;;;;;;;124.38;45.00;;;3.20;99.90;;;;;;5007111;28;20067;-79
2022/01/26 05:30:46;;;;;;;124.05;43.63;;;3.20;99.90;;;;;;5007688;28;20042;-79
2022/01/26 05:33:12;;;;;;;120.88;46.45;;;3.20;99.90;;;;;;5001257;28;20029;-79
2022/01/26 05:35:37;;;;;;;131.20;47.05;;;3.30;99.90;;;;;;5001558;28;20032;-79
2022/01/26 05:38:03;;;;;;;113.13;42.67;;;3.30;99.90;;;;;;5001655;28;20116;-79
2022/01/26 05:40:28;;;;;;;123.25;44.35;;;3.30;99.90;;;;;;5007695;28;20477;-80
2022/01/26 05:42:54;;;;;;;125.22;45.83;;;3.30;99.90;;;;;;5010152;28;20037;-79
2022/01/26 05:45:31;;;;;;;126.88;45.67;;;3.30;99.90;;;;;;5010157;28;20629;-79
2022/01/26 05:47:57;;;;;;;122.65;45.65;;;3.30;99.90;;;;;;5006119;28;20088;-79
2022/01/26 05:50:23;;;;;;;129.77;48.75;;;3.30;99.90;;;;;;5007755;28;20433;-79
2022/01/26 05:52:50;;;;;;;128.65;48.60;;;3.30;99.90;;;;;;5000672;28;20109;-79
2022/01/26 05:55:15;;;;;;;130.50;48.92;;;3.30;99.90;;;;;;5007285;28;20087;-79
2022/01/26 05:57:41;;;;;;;133.88;49.10;;;3.30;99.90;;;;;;5008911;28;20042;-79
2022/01/26 06:00:07;;;;;;;127.18;49.30;;;3.30;99.90;;;;;;5003824;28;20049;-80
2022/01/26 06:02:33;;;;;;;133.50;49.97;;;3.20;99.90;;;;;;5005774;28;20394;-78
2022/01/26 06:04:59;;;;;;;125.00;47.15;;;3.20;99.90;;;;;;5008087;28;20022;-78
2022/01/26 06:07:24;;;;;;;143.02;49.70;;;3.20;99.90;;;;;;4998063;28;20077;-78
2022/01/26 06:09:50;;;;;;;140.75;52.03;;;3.20;99.90;;;;;;4998835;28;20038;-77
2022/01/26 06:12:15;;;;;;;133.75;49.58;;;3.10;99.90;;;;;;5011526;28;20041;-79
2022/01/26 06:14:41;;;;;;;139.68;48.38;;;3.10;99.90;;;;;;5004329;28;20446;-78
2022/01/26 06:17:07;;;;;;;145.43;51.00;;;3.10;99.90;;;;;;5007205;28;20068;-78
2022/01/26 06:19:33;;;;;;;142.25;49.05;;;3.10;99.90;;;;;;5006263;28;20025;-78
2022/01/26 06:21:59;;;;;;;150.90;51.83;;;3.10;99.90;;;;;;5009544;28;20026;-79
2022/01/26 06:24:24;;;;;;;140.75;49.85;;;3.10;99.90;;;;;;5009971;28;20057;-79
2022/01/26 06:26:50;;;;;;;146.77;48.22;;;3.10;99.90;;;;;;4986540;28;20528;-78
2022/01/26 06:29:15;;;;;;;147.98;49.55;;;3.10;99.90;;;;;;5002517;28;20169;-77
2022/01/26 06:31:43;;;;;;;141.25;50.20;;;3.10;99.90;;;;;;5007256;28;20034;-78
2022/01/26 06:34:12;;;;;;;140.93;48.90;;;3.10;99.90;;;;;;5009647;28;20026;-78
2022/01/26 06:36:44;;;;;;;142.77;49.63;;;3.10;99.90;;;;;;5005692;28;20046;-80
2022/01/26 06:39:17;;;;;;;145.33;49.83;;;3.10;99.90;;;;;;5013259;28;20103;-80
2022/01/26 06:41:49;;;;;;;140.95;49.03;;;3.10;99.90;;;;;;5014442;28;20033;-80
2022/01/26 06:51:50;;;;;;;150.18;49.97;;;3.10;99.90;;;;;;5014354;28;20022;-78
2022/01/26 06:54:17;;;;;;;134.85;45.90;;;3.10;99.90;;;;;;5015985;28;20022;-79
2022/01/26 06:56:42;;;;;;;146.18;49.15;;;3.10;99.90;;;;;;5013303;28;20042;-79
2022/01/26 06:59:08;;;;;;;139.18;49.03;;;3.10;99.90;;;;;;5010559;28;20033;-79
2022/01/26 07:01:33;;;;;;;144.85;51.72;;;3.10;99.90;;;;;;5012209;28;20037;-78
2022/01/26 07:03:59;;;;;;;150.65;50.53;;;3.10;99.90;;;;;;5013197;28;20432;-78
2022/01/26 07:06:24;;;;;;;138.93;49.53;;;3.10;99.90;;;;;;5010869;28;20117;-78
2022/01/26 07:08:50;;;;;;;140.50;46.47;;;3.10;99.90;;;;;;5010617;28;20029;-79
2022/01/26 07:11:15;;;;;;;154.80;51.35;;;3.10;99.90;;;;;;5014320;28;20025;-78
2022/01/26 07:13:42;;;;;;;152.50;52.58;;;3.00;99.90;;;;;;5012726;28;20085;-78
2022/01/26 07:21:35;;;;;;;148.02;50.92;;;3.00;99.90;;;;;;5015046;28;20037;-79
2022/01/26 07:24:01;;;;;;;152.90;53.65;;;3.00;99.90;;;;;;5012314;28;20030;-78
2022/01/26 07:26:29;;;;;;;150.35;51.20;;;3.00;99.90;;;;;;4998564;28;20032;-79
2022/01/26 07:29:05;;;;;;;153.98;50.40;;;3.00;99.90;;;;;;5008555;28;20022;-79
2022/01/26 07:31:33;;;;;;;141.15;48.17;;;3.00;99.90;;;;;;4995128;28;20085;-78
2022/01/26 07:33:58;;;;;;;148.45;51.45;;;3.00;99.90;;;;;;5025961;28;20018;-79
2022/01/26 07:36:25;;;;;;;152.18;50.05;;;3.00;99.90;;;;;;5009927;28;20092;-79
2022/01/26 07:38:53;;;;;;;152.90;51.15;;;3.00;99.90;;;;;;5013748;28;20030;-79
2022/01/26 07:41:19;;;;;;;150.18;52.42;;;2.90;99.90;;;;;;5011460;28;20080;-79
2022/01/26 07:43:45;;;;;;;147.82;51.45;;;2.90;99.90;;;;;;5013580;28;20432;-78
2022/01/26 07:46:11;;;;;;;149.50;52.13;;;2.90;99.90;;;;;;5011809;28;20041;-78
2022/01/26 07:48:37;;;;;;;136.73;49.38;;;2.90;99.90;;;;;;5012739;28;20041;-78
2022/01/26 07:51:03;;;;;;;149.75;51.67;;;2.90;99.90;;;;;;5014138;28;20033;-78
2022/01/26 07:53:29;;;;;;;158.55;56.03;;;2.90;99.90;;;;;;5011668;28;20022;-78
2022/01/26 07:55:56;;;;;;;161.45;50.95;;;2.90;99.90;;;;;;5004937;28;20033;-78
2022/01/26 07:58:22;;;;;;;152.85;50.70;;;2.90;99.90;;;;;;5013221;28;20052;-78
2022/01/26 08:00:48;;;;;;;151.70;49.65;;;2.90;99.90;;;;;;5003289;28;20105;-78
2022/01/26 08:03:14;;;;;;;170.55;54.40;;;2.90;99.90;;;;;;5013698;28;20436;-78
2022/01/26 08:05:40;;;;;;;148.52;48.92;;;2.90;99.90;;;;;;4999203;28;20023;-77
2022/01/26 08:08:06;;;;;;;159.27;52.92;;;2.90;99.90;;;;;;5011909;28;20079;-78
2022/01/26 08:10:31;;;;;;;148.98;49.33;;;2.90;99.90;;;;;;5011956;28;20327;-78
2022/01/26 08:12:57;;;;;;;164.93;54.85;;;2.90;99.90;;;;;;5011096;28;20041;-78
2022/01/26 08:15:23;;;;;;;151.77;50.20;;;3.00;99.90;;;;;;5013386;28;20026;-78
2022/01/26 08:17:49;;;;;;;152.63;50.08;;;3.00;99.90;;;;;;5002871;28;20041;-79
2022/01/26 08:20:15;;;;;;;155.25;51.78;;;3.00;99.90;;;;;;5010990;28;20089;-78
2022/01/26 08:22:40;;;;;;;147.98;50.45;;;3.00;99.90;;;;;;5011944;28;20034;-79
2022/01/26 08:25:08;;;;;;;166.13;56.13;;;3.00;99.90;;;;;;5010251;28;20018;-79
2022/01/26 08:27:40;;;;;;;161.35;51.30;;;3.00;99.90;;;;;;5012224;28;20128;-79
2022/01/26 08:30:10;;;;;;;156.52;52.28;;;3.00;99.90;;;;;;5013839;28;20034;-78
2022/01/26 08:32:36;;;;;;;165.18;55.05;;;3.00;99.90;;;;;;5012833;28;20034;-78
2022/01/26 08:35:02;;;;;;;148.55;51.08;;;3.00;99.90;;;;;;4997567;28;20099;-78
2022/01/26 08:37:28;;;;;;;157.32;52.28;;;3.10;99.90;;;;;;5011096;28;20042;-78
2022/01/26 08:39:54;;;;;;;153.60;50.10;;;3.10;99.90;;;;;;5012286;28;20128;-79
2022/01/26 08:42:20;;;;;;;164.57;54.45;;;3.10;99.90;;;;;;5011887;28;20030;-78
2022/01/26 08:44:45;;;;;;;163.48;51.45;;;3.20;99.90;;;;;;5010099;28;20033;-78
2022/01/26 08:47:11;;;;;;;153.73;51.40;;;3.20;99.90;;;;;;5012064;28;20050;-78
2022/01/26 08:49:36;;;;;;;159.23;51.90;;;3.20;99.90;;;;;;5010740;28;20540;-78
2022/01/26 08:52:04;;;;;;;162.43;53.22;;;3.20;99.90;;;;;;5012605;28;20076;-78
2022/01/26 08:54:29;;;;;;;158.07;52.58;;;3.20;99.90;;;;;;5009391;28;20390;-78
2022/01/26 08:56:55;;;;;;;162.35;52.67;;;3.20;99.90;;;;;;5012267;28;20049;-78
2022/01/26 08:59:23;;;;;;;157.38;53.63;;;3.20;99.90;;;;;;5010424;28;20030;-80
2022/01/26 09:01:48;;;;;;;160.23;51.28;;;3.30;99.90;;;;;;5007021;28;20014;-78
2022/01/26 09:04:15;;;;;;;153.13;51.58;;;3.30;99.90;;;;;;5008003;28;20029;-77
2022/01/26 09:06:56;;;;;;;145.32;49.33;;;3.30;99.90;;;;;;5008827;28;20037;-78
2022/01/26 09:09:24;;;;;;;147.10;50.75;;;3.30;99.90;;;;;;5011752;28;20049;-78
2022/01/26 09:11:50;;;;;;;150.13;51.22;;;3.40;99.90;;;;;;5006619;28;20084;-79
2022/01/26 09:14:22;;;;;;;153.52;51.13;;;3.40;99.90;;;;;;5007104;28;20080;-80
2022/01/26 09:16:51;;;;;;;142.35;48.20;;;3.40;99.90;;;;;;5007803;28;20031;-78
2022/01/26 09:21:53;;;;;;;151.80;51.40;;;3.50;99.90;;;;;;5007975;28;20018;-79
2022/01/26 09:24:18;;;;;;;143.32;50.70;;;3.50;99.90;;;;;;5011232;28;20386;-79
2022/01/26 09:26:44;;;;;;;138.40;47.25;;;3.50;99.90;;;;;;5011963;28;20037;-78
2022/01/26 09:29:09;;;;;;;137.23;49.20;;;3.60;99.90;;;;;;5010625;28;20393;-79
2022/01/26 09:31:36;;;;;;;140.75;47.05;;;3.60;99.90;;;;;;5010541;28;20066;-79
2022/01/26 09:34:02;;;;;;;147.10;49.95;;;3.50;99.90;;;;;;5009458;28;20088;-78
2022/01/26 09:36:28;;;;;;;128.15;47.15;;;3.60;99.90;;;;;;5009820;28;20034;-79
2022/01/26 09:38:53;;;;;;;130.23;45.63;;;3.60;99.90;;;;;;5011226;28;20041;-78
2022/01/26 09:41:23;;;;;;;128.68;47.25;;;3.60;99.90;;;;;;5011664;28;20029;-78
2022/01/26 09:43:49;;;;;;;134.68;49.90;;;3.60;99.90;;;;;;5009145;28;20033;-79
2022/01/26 09:46:15;;;;;;;128.95;47.38;;;3.60;99.90;;;;;;5003406;28;20045;-78
2022/01/26 09:48:42;;;;;;;132.35;49.40;;;3.70;99.90;;;;;;5010807;28;20037;-79
2022/01/26 09:51:12;;;;;;;135.57;50.33;;;3.70;99.90;;;;;;5010382;28;20025;-79
2022/01/26 09:53:37;;;;;;;127.68;47.00;;;3.70;99.90;;;;;;5011439;28;20021;-79
2022/01/26 09:56:03;;;;;;;116.53;43.10;;;3.70;99.90;;;;;;5012015;28;20018;-80
2022/01/26 09:58:30;;;;;;;117.60;47.33;;;3.70;99.90;;;;;;5011471;28;20034;-79
2022/01/26 10:01:00;;;;;;;125.25;47.30;;;3.70;99.90;;;;;;5011815;28;20103;-79
2022/01/26 10:03:31;;;;;;;114.90;45.42;;;3.80;99.90;;;;;;5003997;28;20088;-79
2022/01/26 10:05:57;;;;;;;111.13;44.00;;;3.80;99.90;;;;;;5001118;28;20062;-78
2022/01/26 10:08:51;;;;;;;110.07;44.00;;;3.80;99.90;;;;;;5009100;28;20474;-79
2022/01/26 10:19:00;;;;;;;105.53;42.78;;;3.90;99.90;;;;;;4992270;28;20085;-79
2022/01/26 10:21:27;;;;;;;101.13;40.20;;;4.00;99.90;;;;;;4992107;28;20511;-79
2022/01/26 10:23:54;;;;;;;105.03;43.00;;;4.00;99.90;;;;;;5008658;28;20397;-79
2022/01/26 10:26:20;;;;;;;106.07;43.00;;;4.00;99.90;;;;;;5009176;28;20426;-79
2022/01/26 10:28:59;;;;;;;93.65;40.08;;;4.00;99.90;;;;;;5009218;28;20076;-79
2022/01/26 10:31:36;;;;;;;105.20;43.92;;;4.00;99.90;;;;;;5010810;28;20030;-79
2022/01/26 10:34:17;;;;;;;110.53;45.28;;;4.00;99.90;;;;;;5009978;28;20681;-79
2022/01/26 10:36:47;;;;;;;104.03;43.13;;;4.00;99.90;;;;;;5000563;28;20402;-79
2022/01/26 10:39:19;;;;;;;104.53;43.80;;;4.00;99.90;;;;;;5005616;28;20026;-78
2022/01/26 10:41:45;;;;;;;97.30;41.88;;;4.00;99.90;;;;;;5000573;28;20363;-79
2022/01/26 10:44:11;;;;;;;99.53;42.60;;;4.00;99.90;;;;;;5009252;28;20033;-77
2022/01/26 10:46:42;;;;;;;100.88;42.65;;;4.00;99.90;;;;;;5010497;28;20050;-77
2022/01/26 10:49:17;;;;;;;92.53;39.35;;;4.00;99.90;;;;;;5009924;28;20030;-77
2022/01/26 10:54:34;;;;;;;97.53;42.88;;;4.00;99.90;;;;;;5006757;28;20443;-77
2022/01/26 10:57:01;;;;;;;89.03;40.05;;;4.10;99.90;;;;;;5001464;28;20038;-78
2022/01/26 10:59:27;;;;;;;92.90;40.55;;;4.10;99.90;;;;;;5004742;28;20047;-78
2022/01/26 11:01:54;;;;;;;92.10;39.17;;;4.00;99.90;;;;;;5009763;28;20439;-79
2022/01/26 11:04:19;;;;;;;86.10;37.75;;;4.10;99.90;;;;;;5009394;28;20026;-76
2022/01/26 11:06:51;;;;;;;91.55;39.10;;;4.10;99.90;;;;;;5010666;28;20037;-78
2022/01/26 11:09:21;;;;;;;84.37;37.40;;;4.10;99.90;;;;;;4992528;28;20026;-78
2022/01/26 11:11:46;;;;;;;89.90;37.97;;;4.10;99.90;;;;;;5001362;28;20675;-78
2022/01/26 11:14:13;;;;;;;87.63;36.70;;;4.10;99.90;;;;;;5007818;28;20052;-78
2022/01/26 11:16:50;;;;;;;86.22;36.97;;;4.20;99.90;;;;;;4996595;28;20042;-79
2022/01/26 11:19:16;;;;;;;97.43;39.92;;;4.20;99.90;;;;;;5010161;28;20100;-78
2022/01/26 11:21:43;;;;;;;78.20;34.55;;;4.20;99.90;;;;;;5006533;28;20026;-79
2022/01/26 11:24:18;;;;;;;84.57;35.72;;;4.20;99.90;;;;;;5010848;28;20108;-77
2022/01/26 11:26:45;;;;;;;84.45;36.58;;;4.20;99.90;;;;;;5013681;28;20037;-78
2022/01/26 11:29:31;;;;;;;79.50;34.85;;;4.30;99.90;;;;;;5011841;28;20032;-79
2022/01/26 11:32:27;;;;;;;81.47;34.17;;;4.30;99.90;;;;;;5015454;28;20479;-78
2022/01/26 11:34:54;;;;;;;88.60;35.85;;;4.30;99.90;;;;;;5013758;28;20046;-78
2022/01/26 11:37:37;;;;;;;85.72;35.70;;;4.30;99.90;;;;;;5010770;28;20034;-78
2022/01/26 11:45:05;;;;;;;83.05;35.45;;;4.40;99.90;;;;;;5014319;28;20172;-78
2022/01/26 11:45:35;;;;;;;79.95;34.92;;;4.40;99.90;;;;;;5013836;28;20071;-78
2022/01/26 11:48:10;;;;;;;81.78;34.78;;;4.40;99.90;;;;;;5013242;28;20042;-79
2022/01/26 11:50:42;;;;;;;82.45;33.58;;;4.50;99.90;;;;;;5013909;28;20026;-79
2022/01/26 11:53:10;;;;;;;82.70;33.53;;;4.50;99.90;;;;;;5003332;28;20617;-78
2022/01/26 11:55:37;;;;;;;76.00;33.40;;;4.50;99.90;;;;;;5004207;28;20084;-78
2022/01/26 11:58:36;;;;;;;81.93;34.75;;;4.60;99.90;;;;;;5014144;28;20030;-79
2022/01/26 12:01:15;;;;;;;74.13;32.42;;;4.60;99.90;;;;;;5008930;28;20045;-79
2022/01/26 12:04:00;;;;;;;72.60;30.30;;;4.70;99.90;;;;;;5013482;28;20041;-79
2022/01/26 12:06:29;;;;;;;74.32;31.10;;;4.70;99.90;;;;;;5007925;28;20051;-79
2022/01/26 12:08:58;;;;;;;81.80;33.15;;;4.80;99.90;;;;;;5003494;28;20034;-79
2022/01/26 12:11:24;;;;;;;70.38;32.08;;;4.70;99.90;;;;;;5009639;28;20053;-79
2022/01/26 12:14:03;;;;;;;71.25;30.90;;;4.80;99.90;;;;;;4993848;28;20028;-79
2022/01/26 12:16:58;;;;;;;76.75;31.50;;;4.90;99.90;;;;;;5005851;28;20517;-78
2022/01/26 12:19:34;;;;;;;67.82;29.50;;;5.00;99.90;;;;;;5012546;28;20034;-79
2022/01/26 12:36:26;;;;;;;72.88;31.65;;;5.10;99.90;;;;;;5008540;28;20030;-79
2022/01/26 12:38:59;;;;;;;70.65;28.27;;;5.10;99.90;;;;;;5012216;28;20502;-79
2022/01/26 12:43:56;;;;;;;75.82;34.05;;;5.20;99.90;;;;;;5013073;28;20116;-79
2022/01/26 12:46:27;;;;;;;75.65;33.65;;;5.20;99.90;;;;;;5027030;28;20069;-79
2022/01/26 12:48:55;;;;;;;70.07;31.55;;;5.20;99.90;;;;;;5012994;28;20030;-78
2022/01/26 12:51:22;;;;;;;76.45;32.35;;;5.20;99.90;;;;;;5012312;28;20454;-78
2022/01/26 12:53:58;;;;;;;71.88;32.78;;;5.20;99.90;;;;;;5013721;28;20037;-78
2022/01/26 12:56:30;;;;;;;65.20;29.92;;;5.20;99.90;;;;;;5011272;28;20029;-79
2022/01/26 12:59:17;;;;;;;72.60;31.35;;;5.20;99.90;;;;;;5002162;28;20113;-78
2022/01/26 13:01:45;;;;;;;75.85;33.13;;;5.20;99.90;;;;;;5008725;28;20442;-79
2022/01/26 13:04:18;;;;;;;73.32;33.17;;;5.20;99.90;;;;;;5007467;28;20030;-78
2022/01/26 13:06:51;;;;;;;67.57;32.60;;;5.20;99.90;;;;;;5004452;28;20033;-79
2022/01/26 13:09:27;;;;;;;73.85;32.65;;;5.20;99.90;;;;;;5010417;28;20781;-79
2022/01/26 13:11:55;;;;;;;73.32;32.13;;;5.20;99.90;;;;;;5008419;28;20548;-78
2022/01/26 13:14:27;;;;;;;71.88;32.17;;;5.30;99.90;;;;;;5011252;28;20477;-79
2022/01/26 13:25:03;;;;;;;66.78;28.65;;;5.40;99.90;;;;;;5012662;28;19909;-79
2022/01/26 13:30:10;;;;;;;64.47;30.42;;;5.30;99.90;;;;;;5011240;28;20384;-78
2022/01/26 13:38:29;;;;;;;62.67;30.65;;;5.30;99.90;;;;;;4978161;28;20088;-78
2022/01/26 13:59:50;;;;;;;63.75;32.47;;;5.30;99.90;;;;;;4998106;28;20104;-78
2022/01/26 14:02:15;;;;;;;67.95;31.92;;;5.30;99.90;;;;;;5006924;28;20040;-77
2022/01/26 14:04:41;;;;;;;70.43;31.95;;;5.30;99.90;;;;;;5005983;28;20109;-78
2022/01/26 14:07:07;;;;;;;71.93;32.92;;;5.20;99.90;;;;;;5010103;28;20028;-78
2022/01/26 14:09:33;;;;;;;67.72;31.70;;;5.20;99.90;;;;;;5010331;28;20037;-77
2022/01/26 14:12:00;;;;;;;70.63;31.88;;;5.20;99.90;;;;;;5007632;28;20038;-78
2022/01/26 14:14:32;;;;;;;65.70;31.23;;;5.20;99.90;;;;;;5011259;28;20033;-78
2022/01/26 14:17:01;;;;;;;73.10;31.95;;;5.20;99.90;;;;;;5009040;28;20478;-78
2022/01/26 14:19:39;;;;;;;69.53;31.95;;;5.30;99.90;;;;;;5005680;28;20171;-78
2022/01/26 14:27:38;;;;;;;66.63;29.90;;;5.30;99.90;;;;;;4979551;28;20299;-78
2022/01/26 14:35:21;;;;;;;64.68;27.55;;;5.40;99.90;;;;;;5001852;28;20034;-78
2022/01/26 14:51:46;;;;;;;60.95;29.10;;;5.40;99.90;;;;;;5008846;28;22686;-78
2022/01/26 14:54:26;;;;;;;61.17;27.92;;;5.40;99.90;;;;;;5010820;28;20165;-79
2022/01/26 15:40:47;;;;;;;74.43;33.75;;;5.30;99.90;;;;;;5014701;28;20079;-79
2022/01/26 15:58:23;;;;;;;72.28;32.72;;;5.10;99.90;;;;;;5003508;28;20053;-78
2022/01/26 16:35:09;;;;;;;85.05;38.03;;;5.00;99.90;;;;;;4994699;28;20037;-79
2022/01/26 17:11:08;;;;;;;82.00;39.47;;;4.90;99.90;;;;;;4994644;28;20406;-79
2022/01/26 17:12:17;;;;;;;85.95;42.53;;;4.90;99.90;;;;;;5007983;28;20087;-80
2022/01/26 18:07:10;;;;;;;99.50;39.17;;;4.70;99.90;;;;;;5010612;28;20045;-79
2022/01/26 18:14:58;;;;;;;92.78;40.67;;;4.50;99.90;;;;;;5006525;28;20454;-80
2022/01/26 18:51:35;;;;;;;97.78;40.30;;;4.30;99.90;;;;;;5011132;28;20037;-79
2022/01/26 18:54:01;;;;;;;87.88;37.67;;;4.20;99.90;;;;;;5007189;28;20076;-80
2022/01/26 18:56:28;;;;;;;89.05;37.92;;;4.30;99.90;;;;;;5015333;28;20389;-79
2022/01/26 18:58:53;;;;;;;90.50;37.97;;;4.30;99.90;;;;;;5012896;28;20076;-79
2022/01/26 19:01:19;;;;;;;96.07;40.03;;;4.30;99.90;;;;;;5015616;28;20448;-80
2022/01/26 19:03:44;;;;;;;95.55;37.70;;;4.20;99.90;;;;;;5014570;28;20034;-79
2022/01/26 19:06:10;;;;;;;88.43;37.38;;;4.30;99.90;;;;;;5012797;28;20032;-79
2022/01/26 19:08:37;;;;;;;94.35;38.67;;;4.30;99.90;;;;;;5009111;28;20034;-75
2022/01/26 19:11:02;;;;;;;90.85;38.40;;;4.30;99.90;;;;;;5008271;28;20125;-78
2022/01/26 19:13:30;;;;;;;98.28;39.38;;;4.30;99.90;;;;;;5007353;28;20078;-78
2022/01/26 19:16:03;;;;;;;86.38;36.53;;;4.30;99.90;;;;;;5014666;28;20029;-78